createdAt,value
2022-11-07T21:01:51.526Z,99862.73
2022-11-07T21:04:18.810Z,99863.23
2022-11-07T21:06:46.110Z,99857.25
2022-11-07T21:09:13.320Z,99852.93
2022-11-07T21:11:42.361Z,99852.69
2022-11-07T21:14:09.967Z,99851.98
2022-11-07T21:16:36.979Z,99855.29
2022-11-07T21:19:05.745Z,99851.23
2022-11-07T21:21:33.933Z,99844.42
2022-11-07T21:24:02.097Z,99844.77
2022-11-07T21:26:39.078Z,99847.27
2022-11-07T21:29:08.745Z,99850.31
2022-11-07T21:31:38.328Z,99853.04
2022-11-07T21:34:07.473Z,99853.53
2022-11-07T21:36:35.109Z,99851.50
2022-11-07T21:39:02.886Z,99854.02
2022-11-07T21:41:30.951Z,99846.64
2022-11-07T21:43:58.200Z,99842.92
2022-11-07T21:46:28.469Z,99843.59
2022-11-07T21:48:56.131Z,99844.63
2022-11-07T21:51:26.631Z,99843.85
2022-11-07T21:53:53.933Z,99844.92
2022-11-07T21:56:25.548Z,99836.58
2022-11-07T21:58:56.534Z,99838.65
2022-11-07T22:01:23.950Z,99839.86
2022-11-07T22:04:09.738Z,99840.44
2022-11-07T22:06:40.396Z,99844.26
2022-11-07T22:09:09.093Z,99844.60
2022-11-07T22:11:36.541Z,99834.43
2022-11-07T22:14:04.033Z,99837.77
2022-11-07T22:16:31.807Z,99839.52
2022-11-07T22:19:00.302Z,99837.80
2022-11-07T22:21:27.292Z,99834.14
2022-11-07T22:23:55.785Z,99831.66
2022-11-07T22:26:25.296Z,99834.12
2022-11-07T22:28:53.386Z,99834.88
2022-11-07T22:31:25.248Z,99831.60
2022-11-07T22:33:53.220Z,99831.03
2022-11-07T22:36:21.282Z,99829.13
2022-11-07T22:38:48.743Z,99824.99
2022-11-07T22:41:18.861Z,99828.67
2022-11-07T22:43:46.711Z,99832.45
2022-11-07T22:46:17.153Z,99839.45
2022-11-07T22:48:45.635Z,99832.89
2022-11-07T22:51:17.290Z,99829.42
2022-11-07T22:53:44.544Z,99824.35
2022-11-07T22:56:15.854Z,99831.20
2022-11-07T22:58:43.925Z,99830.59
2022-11-07T23:01:38.638Z,99830.10
2022-11-07T23:04:07.241Z,99828.42
2022-11-07T23:06:34.273Z,99830.23
2022-11-07T23:09:01.640Z,99829.05
2022-11-07T23:11:48.598Z,99827.83
2022-11-07T23:14:19.593Z,99819.70
2022-11-07T23:16:52.502Z,99813.93
2022-11-07T23:19:23.422Z,99810.14
2022-11-07T23:21:52.433Z,99804.42
2022-11-07T23:24:20.959Z,99798.88
2022-11-07T23:26:48.661Z,99803.89
2022-11-07T23:29:23.113Z,99807.65
2022-11-07T23:31:51.985Z,99821.37
2022-11-07T23:34:20.540Z,99827.30
2022-11-07T23:36:50.675Z,99830.46
2022-11-07T23:39:21.250Z,99826.81
2022-11-07T23:41:48.481Z,99820.86
2022-11-07T23:44:15.917Z,99833.61
2022-11-07T23:47:02.112Z,99835.09
2022-11-07T23:49:55.578Z,99833.27
2022-11-07T23:52:22.729Z,99825.50
2022-11-07T23:55:08.145Z,99815.11
2022-11-07T23:57:56.567Z,99800.61
